createdAt,value
2022-12-25T00:07:29.358Z,5.19
2022-12-25T00:27:29.402Z,5.10
2022-12-25T00:47:29.390Z,5.09
2022-12-25T01:07:29.334Z,5.04
2022-12-25T01:27:29.307Z,4.95
2022-12-25T01:47:29.307Z,4.94
2022-12-25T02:07:29.277Z,4.93
2022-12-25T02:27:29.271Z,4.92
2022-12-25T02:47:29.254Z,4.94
2022-12-25T03:07:29.236Z,5.00
2022-12-25T03:27:29.244Z,5.09
2022-12-25T03:47:29.225Z,5.16
2022-12-25T04:07:29.219Z,5.20
2022-12-25T04:27:29.199Z,5.25
2022-12-25T04:47:29.195Z,5.26
2022-12-25T05:07:29.180Z,5.27
2022-12-25T05:27:29.180Z,5.27
2022-12-25T05:47:29.156Z,5.28
2022-12-25T06:07:29.151Z,5.28
2022-12-25T06:27:29.171Z,5.32
2022-12-25T06:47:29.126Z,5.33
2022-12-25T07:07:29.114Z,5.52
2022-12-25T07:27:29.143Z,5.61
2022-12-25T07:47:29.070Z,5.69
2022-12-25T08:07:29.110Z,5.82
2022-12-25T08:27:29.067Z,5.89
2022-12-25T08:47:29.188Z,6.17
2022-12-25T09:07:29.043Z,6.17
2022-12-25T09:27:29.038Z,6.50
2022-12-25T09:47:29.053Z,7.03
2022-12-25T10:07:28.989Z,7.56
2022-12-25T10:27:28.972Z,7.91
2022-12-25T10:47:28.954Z,8.36
2022-12-25T11:07:28.940Z,8.67
2022-12-25T11:27:28.948Z,8.85
2022-12-25T11:47:28.947Z,9.14
2022-12-25T12:07:28.889Z,9.15
2022-12-25T12:27:28.879Z,9.26
2022-12-25T12:47:28.859Z,9.22
2022-12-25T13:07:28.846Z,9.33
2022-12-25T13:27:28.950Z,9.37
2022-12-25T13:47:28.796Z,9.34
2022-12-25T14:07:28.800Z,9.26
2022-12-25T14:27:28.766Z,9.10
2022-12-25T15:27:28.798Z,8.15
2022-12-25T15:47:28.818Z,7.84
2022-12-25T16:07:28.808Z,7.71
2022-12-25T16:27:28.703Z,7.35
2022-12-25T16:47:28.700Z,7.09
2022-12-25T17:07:28.680Z,6.85
2022-12-25T17:27:28.648Z,6.50
2022-12-25T18:07:28.600Z,5.98
2022-12-25T18:27:28.643Z,5.64
2022-12-25T18:47:28.630Z,5.44
2022-12-25T19:07:28.569Z,5.20
2022-12-25T19:27:28.609Z,5.01
2022-12-25T19:47:28.568Z,4.78
2022-12-25T20:07:28.605Z,4.46
2022-12-25T20:27:28.510Z,4.48
2022-12-25T20:47:28.602Z,4.52
2022-12-25T21:07:28.638Z,4.43
2022-12-25T21:27:28.565Z,4.45
2022-12-25T21:47:28.455Z,4.33
2022-12-25T22:07:28.462Z,4.33
2022-12-25T22:27:28.490Z,4.30
2022-12-25T22:47:28.492Z,4.29
2022-12-25T23:07:28.438Z,4.24
2022-12-25T23:27:28.410Z,4.24
2022-12-25T23:47:28.410Z,4.20
